In Rescue
 
Open Full Screen Window  High Contrast Mode
Wind Gusting 00 knots
11
April 19, 2021 7:54 PM CDT
Weather Information
Wind Direction
  360 °
Wind Speed
  11 kt (13 mph)
Wind Gust
  00 kt (0 mph)
Altimeter
30.14 in
Visibility
10 SM
Temperature
01° C
34° F
Dewpoint
-11° C
12° F
Humidity
41%
1hr Rain Fall
00.00 in.
24hr Rain Fall
00.00 in.
Sky Condition
Scattered @ 6,000 ft
VFR

METAR KCKN 200054Z AUTO 36011KT 10SM SCT060 01/M11 A3014 RMK AO2

FAA Disclaimer: The data displayed is for advisory purposes only and is not to be used for flight planning or operations.